Lake Dynasty — 3FZB2 — position and weather

sailwx.info

Track history (hours):
 
Tides and Currents Weather Stations Pressure Air Temp Water Temp Dewpoint Dewpoint Depression Visibility Wind Speed Wind Dir Waves Ship Positions

Lake Dynasty

Last reported at 2015-Aug-19 02:08 UTC. Time now 2015-Aug-31 17:47 UTC.
Position S 30°01' E 031°57'.
Warning: this ship's position is 12 days out of date.

Length 182 m; draft 6.2 m.

Type: Cargo ship. MMSI: 370957000.

Date/timePositionNaut miles runAvg speedWind from/ knotsBaromVisibWave heightAir tempDewpointWater temp
2015-Aug-19 02:08S 30°01' E 031°57'2 3.6
2015-Aug-19 01:32S 29°59' E 031°57'5 3.9
2015-Aug-19 00:23S 29°55' E 031°58'4 4.5
2015-Aug-18 23:34S 29°51' E 031°59'5 4.8
2015-Aug-18 22:34S 29°47' E 031°59'5 4.9
2015-Aug-18 21:33S 29°42' E 031°60'2 2.4
2015-Aug-18 20:34S 29°40' E 031°57'8 8.3
2015-Aug-18 19:34S 29°43' E 031°48'9 8.5
2015-Aug-18 18:34S 29°44' E 031°39'1010.4
2015-Aug-18 17:34S 29°47' E 031°27'1111.4
2015-Aug-18 16:34S 29°49' E 031°14'9 8.6
2015-Aug-18 15:34S 29°51' E 031°04'4 4.0
2015-Aug-18 14:34S 29°53' E 031°00'1 0.5
2015-Aug-18 13:31S 29°52' E 031°01'0 0.0
2015-Aug-18 12:31S 29°52' E 031°01'0 0.0
2015-Aug-18 11:30S 29°52' E 031°01'0 0.0
2015-Aug-18 10:31S 29°52' E 031°01'0 0.0
2015-Aug-18 09:31S 29°52' E 031°01'0 0.0
2015-Aug-18 08:31S 29°52' E 031°01'0 0.0
2015-Aug-18 07:28S 29°52' E 031°01'0 0.0
2015-Aug-18 06:31S 29°52' E 031°01'0 0.0
2015-Aug-18 05:31S 29°52' E 031°01'0 0.0
2015-Aug-18 04:31S 29°52' E 031°01'0 0.0
2015-Aug-18 04:10S 29°52' E 031°01'0 0.2
2015-Aug-18 04:07S 29°52' E 031°01'0 0.0
2015-Aug-18 03:31S 29°52' E 031°01'0 0.0
2015-Aug-18 02:31S 29°52' E 031°01'0 0.0
2015-Aug-18 01:31S 29°52' E 031°01'0 0.0
2015-Aug-18 00:31S 29°52' E 031°01'0 0.0
2015-Aug-17 23:31S 29°52' E 031°01'0 0.0
2015-Aug-17 22:31S 29°52' E 031°01'0 0.0
2015-Aug-17 21:31S 29°52' E 031°01'0 0.0
2015-Aug-17 20:31S 29°52' E 031°01'0 0.0
2015-Aug-17 19:31S 29°52' E 031°01'0 0.0
2015-Aug-17 18:28S 29°52' E 031°01'0 0.0
2015-Aug-17 17:31S 29°52' E 031°01'0 0.0
2015-Aug-17 16:31S 29°52' E 031°01'0 0.0
2015-Aug-17 15:31S 29°52' E 031°01'0 0.0
2015-Aug-17 14:31S 29°52' E 031°01'0 0.0
2015-Aug-17 13:31S 29°52' E 031°01'0 0.0
2015-Aug-17 12:31S 29°52' E 031°01'0 0.0
2015-Aug-17 11:31S 29°52' E 031°01'0 0.0
2015-Aug-17 10:31S 29°52' E 031°01'0 0.0
2015-Aug-17 09:28S 29°52' E 031°01'0 0.0
2015-Aug-17 08:31S 29°52' E 031°01'0 0.0
2015-Aug-17 07:31S 29°52' E 031°01'0 0.0
2015-Aug-17 06:31S 29°52' E 031°01'0 0.0
2015-Aug-17 05:31S 29°52' E 031°01'0 0.0
2015-Aug-17 04:31S 29°52' E 031°01'0 0.0
2015-Aug-17 03:31S 29°52' E 031°01'0 0.0
2015-Aug-17 02:31S 29°52' E 031°01'0 0.0
2015-Aug-17 01:31S 29°52' E 031°01'0 0.0
2015-Aug-17 00:31S 29°52' E 031°01'0 0.0
2015-Aug-16 23:31S 29°52' E 031°01'0 0.0
2015-Aug-16 22:31S 29°52' E 031°01'0 0.0
2015-Aug-16 21:31S 29°52' E 031°01'0 0.0
2015-Aug-16 20:31S 29°52' E 031°01'0 0.0
2015-Aug-16 19:28S 29°52' E 031°01'0 0.0
2015-Aug-16 18:28S 29°52' E 031°01'0 0.0
2015-Aug-16 17:31S 29°52' E 031°01'0 0.0
2015-Aug-16 16:31S 29°52' E 031°01'0 0.0
2015-Aug-16 15:31S 29°52' E 031°01'0 0.0
2015-Aug-16 14:31S 29°52' E 031°01'0 0.0
2015-Aug-16 13:31S 29°52' E 031°01'0 0.0
2015-Aug-16 12:28S 29°52' E 031°01'0 0.0
2015-Aug-16 11:31S 29°52' E 031°01'0 0.0
2015-Aug-16 10:31S 29°52' E 031°01'0 0.0
2015-Aug-16 09:31S 29°52' E 031°01'0 0.0
2015-Aug-16 08:31S 29°52' E 031°01'0 0.0
2015-Aug-16 07:31S 29°52' E 031°01'0 0.0
2015-Aug-16 06:31S 29°52' E 031°01'0 0.0
2015-Aug-16 05:31S 29°52' E 031°01'0 0.0
2015-Aug-16 04:31S 29°52' E 031°01'0 0.0
2015-Aug-16 03:31S 29°52' E 031°01'0 0.0
2015-Aug-16 02:31S 29°52' E 031°01'0 0.0
2015-Aug-16 01:31S 29°52' E 031°01'0 0.0
2015-Aug-16 00:31S 29°52' E 031°01'0 0.0
2015-Aug-15 23:31S 29°52' E 031°01'0 0.0
2015-Aug-15 22:31S 29°52' E 031°01'0 0.0
2015-Aug-15 21:28S 29°52' E 031°01'0 0.0
2015-Aug-15 20:31S 29°52' E 031°01'0 0.0
2015-Aug-15 19:33S 29°52' E 031°01'4 3.8
2015-Aug-15 18:34S 29°50' E 031°04'4 3.6
2015-Aug-15 17:33S 29°49' E 031°08'1 0.8
2015-Aug-15 16:33S 29°49' E 031°07'2 1.7
2015-Aug-15 15:32S 29°48' E 031°08'0 0.0
2015-Aug-15 14:32S 29°48' E 031°08'0 0.0
2015-Aug-15 13:32S 29°48' E 031°08'0 0.0
2015-Aug-15 12:32S 29°48' E 031°08'0 0.2
2015-Aug-15 11:34S 29°48' E 031°08'3 3.0
2015-Aug-15 10:33S 29°50' E 031°11'2 1.9
2015-Aug-15 09:33S 29°52' E 031°11'2 1.7
2015-Aug-15 08:33S 29°50' E 031°11'1 0.6
2015-Aug-15 07:33S 29°51' E 031°11'3 2.7
2015-Aug-15 06:33S 29°51' E 031°08'6 5.7
2015-Aug-15 05:33S 29°56' E 031°05'8 7.8
2015-Aug-15 04:33S 30°03' E 031°01'1212.3
2015-Aug-15 03:33S 30°14' E 030°55'1312.4
2015-Aug-15 02:31S 30°26' E 030°50'  
2015-Aug-12 17:08S 34°08' E 018°13'  
Track history (hours):
 
Tides and Currents Weather Stations Pressure Air Temp Water Temp Dewpoint Dewpoint Depression Visibility Wind Speed Wind Dir Waves Ship Positions

Lake Dynasty

Last reported at 2015-Aug-19 02:08 UTC. Time now 2015-Aug-31 17:47 UTC.
Position S 30°01' E 031°57'.
Warning: this ship's position is 12 days out of date.

Length 182 m; draft 6.2 m.

Type: Cargo ship. MMSI: 370957000.

Date/timePositionNaut miles runAvg speedWind from/ knotsBaromVisibWave heightAir tempDewpointWater temp
2015-Aug-19 02:08S 30°01' E 031°57'2 3.6
2015-Aug-19 01:32S 29°59' E 031°57'5 3.9
2015-Aug-19 00:23S 29°55' E 031°58'4 4.5
2015-Aug-18 23:34S 29°51' E 031°59'5 4.8
2015-Aug-18 22:34S 29°47' E 031°59'5 4.9
2015-Aug-18 21:33S 29°42' E 031°60'2 2.4
2015-Aug-18 20:34S 29°40' E 031°57'8 8.3
2015-Aug-18 19:34S 29°43' E 031°48'9 8.5
2015-Aug-18 18:34S 29°44' E 031°39'1010.4
2015-Aug-18 17:34S 29°47' E 031°27'1111.4
2015-Aug-18 16:34S 29°49' E 031°14'9 8.6
2015-Aug-18 15:34S 29°51' E 031°04'4 4.0
2015-Aug-18 14:34S 29°53' E 031°00'1 0.5
2015-Aug-18 13:31S 29°52' E 031°01'0 0.0
2015-Aug-18 12:31S 29°52' E 031°01'0 0.0
2015-Aug-18 11:30S 29°52' E 031°01'0 0.0
2015-Aug-18 10:31S 29°52' E 031°01'0 0.0
2015-Aug-18 09:31S 29°52' E 031°01'0 0.0
2015-Aug-18 08:31S 29°52' E 031°01'0 0.0
2015-Aug-18 07:28S 29°52' E 031°01'0 0.0
2015-Aug-18 06:31S 29°52' E 031°01'0 0.0
2015-Aug-18 05:31S 29°52' E 031°01'0 0.0
2015-Aug-18 04:31S 29°52' E 031°01'0 0.0
2015-Aug-18 04:10S 29°52' E 031°01'0 0.2
2015-Aug-18 04:07S 29°52' E 031°01'0 0.0
2015-Aug-18 03:31S 29°52' E 031°01'0 0.0
2015-Aug-18 02:31S 29°52' E 031°01'0 0.0
2015-Aug-18 01:31S 29°52' E 031°01'0 0.0
2015-Aug-18 00:31S 29°52' E 031°01'0 0.0
2015-Aug-17 23:31S 29°52' E 031°01'0 0.0
2015-Aug-17 22:31S 29°52' E 031°01'0 0.0
2015-Aug-17 21:31S 29°52' E 031°01'0 0.0
2015-Aug-17 20:31S 29°52' E 031°01'0 0.0
2015-Aug-17 19:31S 29°52' E 031°01'0 0.0
2015-Aug-17 18:28S 29°52' E 031°01'0 0.0
2015-Aug-17 17:31S 29°52' E 031°01'0 0.0
2015-Aug-17 16:31S 29°52' E 031°01'0 0.0
2015-Aug-17 15:31S 29°52' E 031°01'0 0.0
2015-Aug-17 14:31S 29°52' E 031°01'0 0.0
2015-Aug-17 13:31S 29°52' E 031°01'0 0.0
2015-Aug-17 12:31S 29°52' E 031°01'0 0.0
2015-Aug-17 11:31S 29°52' E 031°01'0 0.0
2015-Aug-17 10:31S 29°52' E 031°01'0 0.0
2015-Aug-17 09:28S 29°52' E 031°01'0 0.0
2015-Aug-17 08:31S 29°52' E 031°01'0 0.0
2015-Aug-17 07:31S 29°52' E 031°01'0 0.0
2015-Aug-17 06:31S 29°52' E 031°01'0 0.0
2015-Aug-17 05:31S 29°52' E 031°01'0 0.0
2015-Aug-17 04:31S 29°52' E 031°01'0 0.0
2015-Aug-17 03:31S 29°52' E 031°01'0 0.0
2015-Aug-17 02:31S 29°52' E 031°01'0 0.0
2015-Aug-17 01:31S 29°52' E 031°01'0 0.0
2015-Aug-17 00:31S 29°52' E 031°01'0 0.0
2015-Aug-16 23:31S 29°52' E 031°01'0 0.0
2015-Aug-16 22:31S 29°52' E 031°01'0 0.0
2015-Aug-16 21:31S 29°52' E 031°01'0 0.0
2015-Aug-16 20:31S 29°52' E 031°01'0 0.0
2015-Aug-16 19:28S 29°52' E 031°01'0 0.0
2015-Aug-16 18:28S 29°52' E 031°01'0 0.0
2015-Aug-16 17:31S 29°52' E 031°01'0 0.0
2015-Aug-16 16:31S 29°52' E 031°01'0 0.0
2015-Aug-16 15:31S 29°52' E 031°01'0 0.0
2015-Aug-16 14:31S 29°52' E 031°01'0 0.0
2015-Aug-16 13:31S 29°52' E 031°01'0 0.0
2015-Aug-16 12:28S 29°52' E 031°01'0 0.0
2015-Aug-16 11:31S 29°52' E 031°01'0 0.0
2015-Aug-16 10:31S 29°52' E 031°01'0 0.0
2015-Aug-16 09:31S 29°52' E 031°01'0 0.0
2015-Aug-16 08:31S 29°52' E 031°01'0 0.0
2015-Aug-16 07:31S 29°52' E 031°01'0 0.0
2015-Aug-16 06:31S 29°52' E 031°01'0 0.0
2015-Aug-16 05:31S 29°52' E 031°01'0 0.0
2015-Aug-16 04:31S 29°52' E 031°01'0 0.0
2015-Aug-16 03:31S 29°52' E 031°01'0 0.0
2015-Aug-16 02:31S 29°52' E 031°01'0 0.0
2015-Aug-16 01:31S 29°52' E 031°01'0 0.0
2015-Aug-16 00:31S 29°52' E 031°01'0 0.0
2015-Aug-15 23:31S 29°52' E 031°01'0 0.0
2015-Aug-15 22:31S 29°52' E 031°01'0 0.0
2015-Aug-15 21:28S 29°52' E 031°01'0 0.0
2015-Aug-15 20:31S 29°52' E 031°01'0 0.0
2015-Aug-15 19:33S 29°52' E 031°01'4 3.8
2015-Aug-15 18:34S 29°50' E 031°04'4 3.6
2015-Aug-15 17:33S 29°49' E 031°08'1 0.8
2015-Aug-15 16:33S 29°49' E 031°07'2 1.7
2015-Aug-15 15:32S 29°48' E 031°08'0 0.0
2015-Aug-15 14:32S 29°48' E 031°08'0 0.0
2015-Aug-15 13:32S 29°48' E 031°08'0 0.0
2015-Aug-15 12:32S 29°48' E 031°08'0 0.2
2015-Aug-15 11:34S 29°48' E 031°08'3 3.0
2015-Aug-15 10:33S 29°50' E 031°11'2 1.9
2015-Aug-15 09:33S 29°52' E 031°11'2 1.7
2015-Aug-15 08:33S 29°50' E 031°11'1 0.6
2015-Aug-15 07:33S 29°51' E 031°11'3 2.7
2015-Aug-15 06:33S 29°51' E 031°08'6 5.7
2015-Aug-15 05:33S 29°56' E 031°05'8 7.8
2015-Aug-15 04:33S 30°03' E 031°01'1212.3
2015-Aug-15 03:33S 30°14' E 030°55'1312.4
2015-Aug-15 02:31S 30°26' E 030°50'  
2015-Aug-12 17:08S 34°08' E 018°13'  

Dump ship's entire track history